Time;durP1;ratioP1;P1;durP2;ratioP2;P2;SDS_P1;SDS_P2;PMS_P1;PMS_P2;Temp;Humidity;BMP_temperature;BMP_pressure;BME280_temperature;BME280_humidity;BME280_pressure;Samples;Min_cycle;Max_cycle;Signal;HPM_P1;HPM_P2
2022/12/28 00:02:47;;;;;;;8.48;4.85;;;;;;;2.46;72.91;101156.07;1913333;93;29879;-67
2022/12/28 00:05:49;;;;;;;11.12;5.40;;;;;;;2.47;72.96;101151.65;1912958;93;32304;-65
2022/12/28 00:08:53;;;;;;;11.05;5.42;;;;;;;2.45;73.01;101151.66;1944346;91;33418;-64
2022/12/28 00:11:55;;;;;;;13.70;6.22;;;;;;;2.42;72.95;101148.56;1942680;91;30600;-64
2022/12/28 00:14:58;;;;;;;12.85;6.05;;;;;;;2.36;72.88;101158.27;1913312;93;27709;-66
2022/12/28 00:18:00;;;;;;;11.73;5.92;;;;;;;2.29;72.90;101157.41;1913000;93;30085;-63
2022/12/28 00:21:03;;;;;;;13.75;6.42;;;;;;;2.22;72.91;101154.35;1944250;91;31928;-63
2022/12/28 00:24:06;;;;;;;13.15;5.60;;;;;;;2.14;72.89;101151.72;1943065;91;34159;-65
2022/12/28 00:27:08;;;;;;;11.73;6.08;;;;;;;2.05;72.88;101153.93;1913319;93;30243;-63
2022/12/28 00:30:13;;;;;;;9.10;5.35;;;;;;;1.97;72.99;101161.86;1909314;93;27930;-62
2022/12/28 00:33:15;;;;;;;11.08;5.55;;;;;;;1.89;72.99;101153.49;1916979;92;29977;-64
2022/12/28 00:36:18;;;;;;;13.25;6.03;;;;;;;1.81;73.06;101153.49;1916824;92;32015;-67
2022/12/28 00:39:20;;;;;;;11.38;6.50;;;;;;;1.73;73.12;101151.27;1916794;92;34195;-68
2022/12/28 00:42:22;;;;;;;11.22;6.22;;;;;;;1.64;73.15;101142.90;1917089;92;29642;-66
2022/12/28 00:45:24;;;;;;;14.38;6.55;;;;;;;1.56;73.25;101146.85;1905380;93;27682;-67
2022/12/28 00:48:26;;;;;;;11.55;6.45;;;;;;;1.48;73.35;101141.56;1917088;92;29553;-63
2022/12/28 00:51:29;;;;;;;12.58;6.75;;;;;;;1.43;73.48;101151.68;1916830;92;32292;-61
2022/12/28 00:54:31;;;;;;;13.15;6.97;;;;;;;1.36;73.56;101154.30;1905532;93;32355;-62
2022/12/28 00:57:36;;;;;;;16.48;8.28;;;;;;;1.30;73.63;101158.68;1916835;92;30916;-63
2022/12/28 01:00:37;;;;;;;13.28;7.97;;;;;;;1.23;73.73;101148.55;1905560;93;27770;-65
2022/12/28 01:03:39;;;;;;;16.82;8.35;;;;;;;1.18;73.75;101143.69;1917177;92;29897;-61
2022/12/28 01:06:41;;;;;;;11.70;6.80;;;;;;;1.12;73.81;101137.09;1917055;92;31869;-63
2022/12/28 01:09:43;;;;;;;15.68;7.40;;;;;;;1.08;73.92;101135.31;1916829;92;34351;-63
2022/12/28 01:12:44;;;;;;;11.75;7.12;;;;;;;1.02;74.03;101130.91;1917099;92;30466;-61
2022/12/28 01:15:46;;;;;;;15.15;6.87;;;;;;;0.98;74.17;101135.72;1917277;92;27691;-64
2022/12/28 01:18:52;;;;;;;10.98;6.33;;;;;;;0.93;74.24;101123.84;1917064;92;29092;-63
2022/12/28 01:21:54;;;;;;;19.92;6.15;;;;;;;0.88;74.33;101122.92;1905638;93;31055;-61
2022/12/28 01:24:56;;;;;;;15.18;6.90;;;;;;;0.85;74.43;101117.63;1916623;92;33829;-61
2022/12/28 01:27:58;;;;;;;15.48;6.45;;;;;;;0.81;74.55;101111.93;1905184;93;30824;-61
2022/12/28 01:31:06;;;;;;;13.93;6.87;;;;;;;0.77;74.62;101107.52;1916772;92;27767;-61
2022/12/28 01:34:08;;;;;;;10.43;6.37;;;;;;;0.73;74.78;101105.31;1905532;93;28771;-62
2022/12/28 01:37:10;;;;;;;14.03;7.62;;;;;;;0.70;74.79;101102.66;1905504;93;31925;-61
2022/12/28 01:40:14;;;;;;;17.40;7.22;;;;;;;0.66;74.87;101107.05;1917068;92;33605;-62
2022/12/28 01:43:16;;;;;;;16.45;8.20;;;;;;;0.63;75.00;101105.70;1905625;93;30788;-62
2022/12/28 01:46:38;;;;;;;19.40;8.18;;;;;;;0.60;74.99;101106.55;1917143;92;27751;-63
2022/12/28 01:50:02;;;;;;;15.28;7.53;;;;;;;0.56;75.08;101106.12;1905652;93;29582;-63
2022/12/28 01:53:05;;;;;;;17.12;7.78;;;;;;;0.51;75.10;101109.16;1905510;93;31901;-61
2022/12/28 01:56:07;;;;;;;16.32;7.70;;;;;;;0.49;75.22;101099.49;1917131;92;34181;-62
2022/12/28 01:59:11;;;;;;;17.15;8.70;;;;;;;0.46;75.27;101101.66;1905253;93;30465;-61
2022/12/28 02:02:13;;;;;;;14.45;8.10;;;;;;;0.42;75.38;101095.49;1905588;93;27786;-61
2022/12/28 02:05:16;;;;;;;19.92;8.98;;;;;;;0.41;75.48;101088.91;1917191;92;29861;-63
2022/12/28 02:08:29;;;;;;;13.60;8.45;;;;;;;0.38;75.56;101087.57;1905244;93;31209;-64
2022/12/28 02:11:32;;;;;;;13.13;8.30;;;;;;;0.37;75.58;101085.80;1917016;92;32991;-61
2022/12/28 02:14:35;;;;;;;16.60;8.25;;;;;;;0.34;75.68;101074.79;1916905;92;30712;-64
2022/12/28 02:17:36;;;;;;;17.52;7.40;;;;;;;0.31;75.72;101074.80;1917007;92;27707;-60
2022/12/28 02:20:50;;;;;;;16.77;8.00;;;;;;;0.29;75.80;101064.69;1916784;92;29519;-61
2022/12/28 02:24:12;;;;;;;15.98;7.92;;;;;;;0.25;75.85;101055.86;1905457;93;31049;-64
2022/12/28 02:27:31;;;;;;;16.70;8.68;;;;;;;0.22;75.90;101045.33;1916718;92;33151;-60
2022/12/28 02:30:36;;;;;;;18.00;7.95;;;;;;;0.20;76.02;101043.12;1904396;93;30249;-64
2022/12/28 02:33:46;;;;;;;18.75;8.70;;;;;;;0.18;76.09;101029.05;1917356;92;27720;-61
2022/12/28 02:36:59;;;;;;;17.95;8.38;;;;;;;0.16;76.23;101028.61;1905469;93;28122;-60
2022/12/28 02:40:09;;;;;;;17.40;7.80;;;;;;;0.14;76.26;101032.12;1916815;92;31260;-61
2022/12/28 02:43:12;;;;;;;19.45;7.72;;;;;;;0.12;76.37;101025.95;1939527;91;33963;-61
2022/12/28 02:50:05;;;;;;;14.68;7.28;;;;;;;0.12;76.56;101027.27;1917066;92;27747;-66
2022/12/28 02:53:20;;;;;;;13.65;7.92;;;;;;;0.12;76.68;101029.01;1917299;92;29726;-64
2022/12/28 02:56:46;;;;;;;15.00;8.55;;;;;;;0.09;76.78;101015.39;1917022;92;31550;-66
2022/12/28 03:00:05;;;;;;;13.68;8.28;;;;;;;0.11;76.94;101008.80;1905708;93;33041;-66
2022/12/28 03:03:18;;;;;;;14.47;7.45;;;;;;;0.09;76.98;101009.23;1917227;92;29745;-66
2022/12/28 03:10:18;;;;;;;15.18;8.13;;;;;;;0.11;77.30;101000.90;1917199;92;29194;-63
2022/12/28 03:13:43;;;;;;;14.68;7.97;;;;;;;0.12;77.45;101001.34;1905664;93;31263;-61
2022/12/28 03:33:49;;;;;;;13.65;8.18;;;;;;;0.34;78.21;100973.32;1906914;93;34237;-62
2022/12/28 03:37:16;;;;;;;16.55;8.33;;;;;;;0.41;78.20;100968.98;1938446;91;29303;-61
2022/12/28 03:40:41;;;;;;;17.87;8.93;;;;;;;0.47;78.23;100958.44;1938301;91;27741;-60
2022/12/28 03:43:50;;;;;;;13.85;6.90;;;;;;;0.54;78.26;100961.96;1938528;91;28051;-61
2022/12/28 03:46:59;;;;;;;13.03;8.15;;;;;;;0.60;78.28;100955.40;1938417;91;31064;-64
2022/12/28 03:50:03;;;;;;;11.75;7.42;;;;;;;0.66;78.26;100947.93;1938327;91;33865;-61
2022/12/28 03:53:07;;;;;;;15.98;8.13;;;;;;;0.70;78.28;100947.06;1938316;91;29676;-64
2022/12/28 03:56:16;;;;;;;14.23;7.83;;;;;;;0.75;78.28;100943.55;1938384;91;27749;-64
2022/12/28 03:59:18;;;;;;;14.40;8.15;;;;;;;0.81;78.28;100940.49;1938083;91;29941;-66
2022/12/28 04:02:20;;;;;;;15.95;8.60;;;;;;;0.85;78.31;100940.48;1937937;91;31946;-62
2022/12/28 04:05:22;;;;;;;11.78;8.43;;;;;;;0.88;78.23;100938.28;1938133;91;33129;-63
2022/12/28 04:08:25;;;;;;;12.40;8.98;;;;;;;0.91;78.27;100935.66;1938290;91;29277;-61
2022/12/28 04:11:27;;;;;;;13.62;8.60;;;;;;;0.96;78.32;100935.65;1938098;91;27733;-61
2022/12/28 04:14:30;;;;;;;16.95;8.95;;;;;;;0.98;78.31;100929.94;1938402;91;28555;-63
2022/12/28 04:17:32;;;;;;;19.27;9.45;;;;;;;1.03;78.31;100918.95;1938126;91;32157;-67
2022/12/28 04:20:34;;;;;;;13.35;8.93;;;;;;;1.07;78.35;100911.48;1938349;91;33351;-67
2022/12/28 04:23:37;;;;;;;16.15;9.03;;;;;;;1.10;78.26;100908.81;1938102;91;30384;-63
2022/12/28 04:26:38;;;;;;;15.88;10.48;;;;;;;1.12;78.24;100903.55;1938374;91;27798;-61
2022/12/28 04:29:40;;;;;;;23.32;12.55;;;;;;;1.13;78.26;100893.44;1918473;92;28752;-65
2022/12/28 04:32:42;;;;;;;18.00;11.28;;;;;;;1.15;78.22;100889.91;1919465;92;32215;-63
2022/12/28 04:35:44;;;;;;;19.98;12.50;;;;;;;1.16;78.22;100892.13;1973104;90;34246;-64
2022/12/28 04:38:46;;;;;;;18.85;11.40;;;;;;;1.16;78.19;100886.39;1973263;89;30941;-63
2022/12/28 04:41:49;;;;;;;19.48;11.53;;;;;;;1.17;78.16;100883.30;1973203;90;27726;-62
2022/12/28 04:44:50;;;;;;;17.77;11.25;;;;;;;;;;1973112;90;30856;-64
2022/12/28 04:47:57;;;;;;;16.17;10.98;;;;;;;;;;1973152;90;32125;-67
2022/12/28 04:51:07;;;;;;;18.62;10.78;;;;;;;;;;1973391;90;33775;-63
2022/12/28 04:54:13;;;;;;;20.02;11.80;;;;;;;1.14;78.08;100870.13;1973901;90;29986;-64
2022/12/28 04:57:15;;;;;;;17.40;10.50;;;;;;;1.10;78.03;100867.92;1973480;90;28117;-64
2022/12/28 05:00:17;;;;;;;16.60;11.12;;;;;;;1.08;78.02;100864.85;1973315;90;28162;-63
2022/12/28 05:03:19;;;;;;;15.65;11.43;;;;;;;1.04;77.96;100858.25;1973078;90;32278;-65
2022/12/28 05:06:23;;;;;;;18.50;11.78;;;;;;;0.99;77.95;100854.77;1973565;90;33609;-62
2022/12/28 05:09:25;;;;;;;17.80;12.28;;;;;;;0.95;77.95;100850.36;1973353;90;30430;-63
2022/12/28 05:12:27;;;;;;;27.58;14.13;;;;;;;0.90;77.93;100846.84;1973597;90;27744;-64
2022/12/28 05:15:29;;;;;;;21.35;14.43;;;;;;;0.85;77.95;100834.98;1973075;90;30022;-67
2022/12/28 05:18:32;;;;;;;26.40;16.97;;;;;;;0.81;77.99;100833.67;1973059;90;32474;-64
2022/12/28 05:21:33;;;;;;;27.50;16.02;;;;;;;0.77;78.01;100832.78;1973278;89;33076;-61
2022/12/28 05:24:35;;;;;;;21.00;14.30;;;;;;;0.72;78.04;100830.61;1973299;90;30746;-60
2022/12/28 05:27:37;;;;;;;26.15;13.15;;;;;;;0.68;78.11;100821.80;1973284;89;27739;-66
2022/12/28 05:30:38;;;;;;;18.65;12.23;;;;;;;0.66;78.17;100818.73;1973120;89;29124;-61
2022/12/28 05:33:41;;;;;;;16.82;11.05;;;;;;;0.63;78.20;100816.09;1972930;89;32402;-64
2022/12/28 05:36:43;;;;;;;23.42;12.40;;;;;;;0.60;78.32;100807.75;1973366;90;33020;-66
2022/12/28 05:39:45;;;;;;;19.82;11.53;;;;;;;0.56;78.36;100810.84;1973446;90;30787;-63
2022/12/28 05:42:46;;;;;;;24.25;10.80;;;;;;;0.55;78.42;100814.35;1973366;90;28270;-64
2022/12/28 05:45:48;;;;;;;28.52;12.07;;;;;;;0.53;78.53;100812.15;1973144;90;29156;-65
2022/12/28 05:48:50;;;;;;;23.42;12.13;;;;;;;0.51;78.56;100807.31;1972990;90;32248;-67
2022/12/28 05:51:52;;;;;;;19.37;12.25;;;;;;;0.50;78.62;100808.19;1973342;90;34157;-65
2022/12/28 05:54:55;;;;;;;17.57;10.50;;;;;;;0.48;78.72;100792.81;1972985;90;29708;-70
2022/12/28 05:57:56;;;;;;;18.70;9.98;;;;;;;0.46;78.78;100793.25;1973592;89;27721;-66
2022/12/28 06:01:17;;;;;;;15.88;9.98;;;;;;;0.47;78.86;100796.78;1973744;90;28655;-69
2022/12/28 06:04:20;;;;;;;20.70;10.25;;;;;;;0.47;78.96;100799.41;1913661;92;32145;-68
2022/12/28 06:07:22;;;;;;;21.50;10.43;;;;;;;0.47;79.08;100800.28;1912937;93;34484;-63
2022/12/28 06:10:23;;;;;;;18.60;9.53;;;;;;;0.47;79.16;100798.95;1942760;91;29938;-69
2022/12/28 06:13:25;;;;;;;18.45;9.48;;;;;;;0.49;79.32;100798.52;1913137;93;27736;-64
2022/12/28 06:16:30;;;;;;;17.05;9.33;;;;;;;0.51;79.39;100795.88;1912920;93;29950;-70
2022/12/28 06:19:32;;;;;;;;;;;;;;;0.53;79.41;100784.89;1946876;91;31907;-68
2022/12/28 06:22:34;;;;;;;23.65;10.90;;;;;;;0.54;79.52;100773.47;1942939;91;34150;-69
2022/12/28 06:25:37;;;;;;;17.02;9.20;;;;;;;0.56;79.59;100778.30;1931071;92;30847;-61
2022/12/28 06:28:40;;;;;;;23.80;11.08;;;;;;;0.58;79.65;100778.73;1973869;90;27678;-68
2022/12/28 06:31:47;;;;;;;18.95;9.70;;;;;;;0.62;79.69;100788.86;1973260;90;28778;-60
2022/12/28 06:34:49;;;;;;;15.45;9.98;;;;;;;0.64;79.70;100787.53;1913064;92;31943;-64
2022/12/28 06:37:51;;;;;;;16.32;9.33;;;;;;;0.67;79.71;100783.58;1942919;91;33985;-61
2022/12/28 06:40:53;;;;;;;21.90;10.53;;;;;;;0.69;79.67;100785.77;1913029;93;30987;-61
2022/12/28 06:43:57;;;;;;;17.02;9.33;;;;;;;0.70;79.68;100794.98;1913440;93;27736;-60
2022/12/28 06:46:59;;;;;;;15.00;9.03;;;;;;;0.72;79.70;100793.23;1944655;91;28667;-63
2022/12/28 06:50:02;;;;;;;18.55;9.65;;;;;;;0.73;79.67;100785.77;1942782;91;31591;-61
2022/12/28 06:53:03;;;;;;;15.88;9.53;;;;;;;0.75;79.67;100788.38;1913286;93;32414;-60
2022/12/28 06:56:13;;;;;;;20.82;10.48;;;;;;;0.77;79.64;100796.31;1913335;93;30779;-61
2022/12/28 06:59:15;;;;;;;16.55;9.70;;;;;;;0.77;79.64;100792.36;1944595;91;27685;-61
2022/12/28 07:02:18;;;;;;;14.45;8.98;;;;;;;0.77;79.65;100791.91;1942534;91;29937;-65
2022/12/28 07:05:20;;;;;;;17.20;9.20;;;;;;;0.77;79.70;100790.58;1942780;91;31753;-64
2022/12/28 07:08:22;;;;;;;14.78;8.75;;;;;;;0.79;79.72;100778.28;1942488;91;34262;-63
2022/12/28 07:11:24;;;;;;;18.35;8.58;;;;;;;0.81;79.77;100774.34;1973100;90;30498;-67
2022/12/28 07:14:25;;;;;;;15.63;8.05;;;;;;;0.83;79.80;100767.30;1973702;90;27725;-61
2022/12/28 07:17:28;;;;;;;16.05;8.58;;;;;;;0.84;79.87;100773.88;1973092;90;29400;-63
2022/12/28 07:20:30;;;;;;;17.55;8.45;;;;;;;0.89;79.96;100772.55;1913099;93;32498;-60
2022/12/28 07:23:33;;;;;;;15.08;9.55;;;;;;;0.93;80.03;100766.39;1944550;91;32502;-61
2022/12/28 07:26:36;;;;;;;20.45;9.15;;;;;;;0.99;80.08;100762.86;1943155;91;29660;-61
2022/12/28 07:29:40;;;;;;;19.92;9.10;;;;;;;1.05;80.14;100765.03;1913364;93;27731;-62
2022/12/28 07:32:42;;;;;;;19.77;8.60;;;;;;;1.12;80.12;100770.30;1942976;91;28567;-67
2022/12/28 07:35:44;;;;;;;19.02;8.98;;;;;;;1.18;80.15;100759.70;1930886;92;32376;-62
2022/12/28 07:38:47;;;;;;;12.95;7.95;;;;;;;1.25;80.13;100752.22;1913342;93;34089;-66
2022/12/28 07:41:49;;;;;;;16.48;9.00;;;;;;;1.32;80.12;100753.06;1944633;91;30009;-61
2022/12/28 07:44:51;;;;;;;15.70;8.23;;;;;;;1.39;80.06;100757.45;1942535;91;27726;-62
2022/12/28 07:47:54;;;;;;;15.58;7.75;;;;;;;1.46;80.06;100751.23;1942496;91;29607;-64
2022/12/28 07:50:55;;;;;;;16.73;8.13;;;;;;;1.52;80.00;100746.36;1942468;91;32505;-62
2022/12/28 07:53:59;;;;;;;15.15;8.78;;;;;;;1.59;79.97;100743.25;1973287;89;34143;-61
2022/12/28 07:57:01;;;;;;;19.75;9.83;;;;;;;1.65;79.94;100749.83;1973323;90;29709;-60
2022/12/28 08:00:06;;;;;;;20.02;9.63;;;;;;;1.71;79.89;100760.80;1973146;89;27638;-61
2022/12/28 08:03:08;;;;;;;22.03;10.00;;;;;;;1.77;79.86;100758.98;1913515;93;29546;-61
2022/12/28 08:06:21;;;;;;;20.12;10.95;;;;;;;1.84;79.82;100754.55;1912940;93;31948;-61
2022/12/28 08:09:23;;;;;;;23.40;9.78;;;;;;;1.91;79.79;100765.52;1912964;93;34354;-61
2022/12/28 08:12:26;;;;;;;18.92;8.63;;;;;;;2.00;79.73;100760.62;1913302;93;30629;-61
2022/12/28 08:15:28;;;;;;;17.98;7.80;;;;;;;2.07;79.80;100760.99;1944621;91;27640;-62
2022/12/28 08:18:31;;;;;;;15.85;7.55;;;;;;;2.18;79.80;100764.02;1942945;91;29553;-62
2022/12/28 08:21:43;;;;;;;17.00;8.25;;;;;;;2.27;79.72;100778.48;1912953;93;31954;-62
2022/12/28 08:24:46;;;;;;;12.47;6.90;;;;;;;2.35;79.60;100780.63;1942960;91;33134;-65
2022/12/28 08:27:48;;;;;;;11.25;7.08;;;;;;;2.44;79.59;100774.39;1913241;93;30819;-59
2022/12/28 08:30:50;;;;;;;17.70;7.50;;;;;;;2.53;79.57;100769.47;1913318;93;28124;-61
2022/12/28 08:33:54;;;;;;;16.73;6.85;;;;;;;2.61;79.49;100770.27;1912936;92;29104;-60
2022/12/28 08:36:56;;;;;;;9.53;6.03;;;;;;;2.70;79.41;100756.97;1913276;93;31838;-60
2022/12/28 08:39:58;;;;;;;11.48;5.60;;;;;;;2.77;79.24;100755.14;1944666;91;33435;-60
2022/12/28 08:43:02;;;;;;;14.55;6.35;;;;;;;2.87;79.23;100750.62;1942979;91;29732;-60
2022/12/28 08:46:18;;;;;;;12.13;5.42;;;;;;;2.95;79.22;100743.47;1913251;93;27732;-60
2022/12/28 08:49:19;;;;;;;14.20;5.87;;;;;;;3.07;79.28;100735.84;1942482;91;29867;-60
2022/12/28 08:52:23;;;;;;;20.37;10.30;;;;;;;3.18;79.10;100728.64;1913212;93;32234;-61
2022/12/28 08:55:25;;;;;;;19.02;7.58;;;;;;;3.29;79.05;100730.30;1913267;93;33050;-62
2022/12/28 08:58:27;;;;;;;15.78;5.90;;;;;;;3.39;79.00;100717.81;1913223;93;30826;-61
2022/12/28 09:01:33;;;;;;;15.88;5.87;;;;;;;3.50;78.86;100709.27;1943108;91;28234;-60
2022/12/28 09:04:35;;;;;;;12.63;5.05;;;;;;;3.61;78.76;100716.61;1931031;92;29907;-64
2022/12/28 09:07:37;;;;;;;12.15;5.20;;;;;;;3.74;78.77;100721.72;1973018;90;32351;-62
2022/12/28 09:10:39;;;;;;;9.18;4.75;;;;;;;3.86;78.61;100709.64;1972951;89;34182;-64
2022/12/28 09:13:41;;;;;;;11.22;4.80;;;;;;;3.98;78.57;100706.36;1973328;90;29712;-63
2022/12/28 09:16:43;;;;;;;9.65;4.67;;;;;;;4.09;78.27;100703.97;1913246;92;27695;-61
2022/12/28 09:19:45;;;;;;;15.45;5.25;;;;;;;4.17;78.24;100704.27;1913209;93;30013;-61
2022/12/28 09:22:48;;;;;;;12.65;5.67;;;;;;;4.24;77.96;100707.27;1944246;91;32329;-60
2022/12/28 09:25:50;;;;;;;13.78;5.72;;;;;;;4.30;77.99;100697.00;1942948;91;32427;-65
2022/12/28 09:28:55;;;;;;;14.07;6.05;;;;;;;4.37;77.90;100688.05;1913259;93;30038;-62
2022/12/28 09:31:58;;;;;;;12.95;5.40;;;;;;;4.45;77.93;100685.25;1943353;91;27697;-62
2022/12/28 09:35:00;;;;;;;10.28;5.25;;;;;;;4.53;77.86;100684.20;1913137;92;29042;-65
2022/12/28 09:38:02;;;;;;;16.77;5.80;;;;;;;4.61;77.64;100668.58;1912941;93;32333;-64
2022/12/28 09:41:31;;;;;;;10.78;5.20;;;;;;;4.70;77.77;100667.95;1912919;93;34051;-66
2022/12/28 09:44:47;;;;;;;10.50;5.22;;;;;;;4.77;77.38;100664.72;1942594;91;30792;-66
2022/12/28 09:47:54;;;;;;;10.68;4.35;;;;;;;4.85;77.13;100648.20;1912991;93;27768;-64
2022/12/28 09:50:56;;;;;;;12.10;4.15;;;;;;;4.95;77.09;100645.34;1913329;93;28680;-68
2022/12/28 09:53:58;;;;;;;10.00;3.67;;;;;;;5.02;76.80;100649.64;1942884;91;31081;-62
2022/12/28 09:57:00;;;;;;;11.88;4.28;;;;;;;5.13;76.78;100640.13;1930861;92;33195;-62
2022/12/28 10:00:06;;;;;;;7.70;4.03;;;;;;;5.24;76.62;100639.42;1913318;93;30276;-62
2022/12/28 10:03:26;;;;;;;11.95;4.20;;;;;;;5.32;76.43;100645.89;1913640;93;27745;-62
2022/12/28 10:06:31;;;;;;;21.33;4.60;;;;;;;5.40;76.28;100635.09;1942927;91;29401;-62
2022/12/28 10:09:34;;;;;;;7.45;2.98;;;;;;;5.49;75.95;100632.21;1913410;93;31273;-61
2022/12/28 10:12:36;;;;;;;8.53;3.70;;;;;;;5.56;75.82;100620.98;1943022;91;33455;-62
2022/12/28 10:15:38;;;;;;;9.25;3.50;;;;;;;5.64;75.65;100624.34;1913144;93;30870;-61
2022/12/28 10:18:40;;;;;;;10.05;3.33;;;;;;;5.69;75.58;100616.25;1944810;91;27748;-60
2022/12/28 10:21:43;;;;;;;13.15;3.62;;;;;;;5.73;75.35;100612.61;1942643;91;29947;-63
2022/12/28 10:24:45;;;;;;;6.85;3.52;;;;;;;5.77;75.09;100609.84;1942872;91;31138;-62
2022/12/28 10:27:48;;;;;;;4.72;3.00;;;;;;;5.83;75.04;100594.66;1942846;91;34142;-60
2022/12/28 10:31:07;;;;;;;9.38;3.70;;;;;;;5.87;74.97;100591.88;1973494;90;30440;-64
2022/12/28 10:34:21;;;;;;;7.22;3.70;;;;;;;5.94;74.86;100589.92;1973221;89;27813;-62
2022/12/28 10:37:26;;;;;;;13.58;4.78;;;;;;;6.00;74.66;100583.16;1973288;90;28729;-68
2022/12/28 10:40:32;;;;;;;10.30;3.90;;;;;;;6.03;73.92;100575.11;1973605;90;31092;-62
2022/12/28 10:43:37;;;;;;;9.13;4.22;;;;;;;6.08;73.90;100574.51;1973473;90;32958;-63
2022/12/28 10:46:50;;;;;;;10.98;4.40;;;;;;;6.15;74.04;100568.56;1913555;92;30666;-63
2022/12/28 10:49:51;;;;;;;13.30;4.30;;;;;;;6.22;74.11;100560.84;1944870;91;27704;-61
2022/12/28 10:52:57;;;;;;;11.25;5.28;;;;;;;6.32;73.62;100564.57;1942652;91;30027;-61
2022/12/28 10:56:14;;;;;;;10.60;4.50;;;;;;;6.37;73.37;100558.20;1942630;91;31238;-60
2022/12/28 10:59:26;;;;;;;18.50;6.10;;;;;;;6.43;73.30;100550.97;1942634;91;32435;-62
2022/12/28 11:02:33;;;;;;;11.12;5.60;;;;;;;6.47;73.07;100549.97;1973547;89;30449;-61
2022/12/28 11:05:36;;;;;;;10.30;4.85;;;;;;;6.53;73.34;100547.14;1973663;90;27722;-61
2022/12/28 11:08:40;;;;;;;9.45;4.90;;;;;;;6.57;73.05;100533.28;1973264;89;29556;-60
2022/12/28 11:11:47;;;;;;;7.80;4.12;;;;;;;6.62;72.69;100524.23;1913321;92;31130;-60
2022/12/28 11:14:51;;;;;;;8.45;4.30;;;;;;;6.58;72.35;100521.24;1944732;91;33030;-60
2022/12/28 11:17:59;;;;;;;10.98;4.67;;;;;;;6.56;71.91;100514.23;1943025;91;30596;-64
2022/12/28 11:21:01;;;;;;;11.65;4.62;;;;;;;6.51;72.01;100517.89;1931393;92;27730;-60
2022/12/28 11:24:04;;;;;;;17.52;4.87;;;;;;;6.47;71.89;100512.23;1913329;93;28678;-60
2022/12/28 11:27:16;;;;;;;10.48;4.83;;;;;;;6.41;71.89;100500.91;1944304;91;31945;-61
2022/12/28 11:30:20;;;;;;;9.83;4.17;;;;;;;6.38;71.90;100499.22;1942763;91;33038;-64
2022/12/28 11:33:36;;;;;;;9.85;4.50;;;;;;;6.40;71.99;100492.06;1912093;93;29657;-61
2022/12/28 11:36:40;;;;;;;8.53;4.60;;;;;;;6.42;71.94;100472.94;1937086;91;27720;-61
2022/12/28 11:39:45;;;;;;;9.03;4.90;;;;;;;6.48;72.03;100470.55;1917139;92;28805;-63
2022/12/28 11:42:53;;;;;;;9.20;4.05;;;;;;;6.54;71.89;100471.67;1906062;93;31866;-64
2022/12/28 11:46:00;;;;;;;12.68;5.58;;;;;;;6.60;71.85;100457.33;1916809;92;34244;-63
2022/12/28 11:49:24;;;;;;;10.32;5.30;;;;;;;6.67;71.92;100458.87;1905318;93;29722;-59
2022/12/28 11:52:34;;;;;;;10.70;5.17;;;;;;;6.73;71.71;100448.04;1917184;92;28253;-60
2022/12/28 11:55:41;;;;;;;10.18;4.58;;;;;;;6.78;71.80;100439.91;1898539;93;28872;-61
2022/12/28 11:59:00;;;;;;;13.95;4.53;;;;;;;6.82;71.55;100423.77;1905600;93;31082;-66
2022/12/28 12:02:28;;;;;;;9.68;4.10;;;;;;;6.83;71.00;100412.67;1917115;92;33758;-60
2022/12/28 12:05:41;;;;;;;7.05;3.80;;;;;;;6.83;71.23;100406.87;1915183;92;32023;-62
2022/12/28 12:08:48;;;;;;;8.23;4.37;;;;;;;6.87;71.06;100406.78;1906166;93;27978;-61
2022/12/28 12:12:00;;;;;;;10.65;4.33;;;;;;;6.91;71.00;100402.63;1917131;92;28693;-62
2022/12/28 12:15:12;;;;;;;11.12;4.28;;;;;;;6.98;71.27;100400.19;1905630;93;31458;-62
2022/12/28 12:18:24;;;;;;;18.20;8.30;;;;;;;7.08;70.72;100399.86;1916769;92;32457;-61
2022/12/28 12:21:34;;;;;;;10.48;5.90;;;;;;;7.17;70.77;100378.26;1905544;93;29650;-61
2022/12/28 12:24:44;;;;;;;10.40;5.08;;;;;;;7.24;70.52;100382.91;1917151;92;28248;-65
2022/12/28 12:28:19;;;;;;;8.73;4.90;;;;;;;7.32;70.55;100378.65;1916979;92;30922;-60
2022/12/28 12:31:29;;;;;;;8.55;4.28;;;;;;;7.39;70.60;100370.83;1917454;92;31447;-64
2022/12/28 12:34:50;;;;;;;8.08;3.80;;;;;;;7.45;70.52;100371.95;1916846;92;32413;-62
2022/12/28 12:38:15;;;;;;;8.48;3.90;;;;;;;7.49;70.22;100365.59;1917149;92;30112;-67
2022/12/28 12:41:49;;;;;;;11.43;3.77;;;;;;;7.52;69.99;100365.50;1905793;93;27719;-63
2022/12/28 12:45:04;;;;;;;6.03;3.08;;;;;;;7.57;70.14;100365.32;1936896;91;28675;-63
2022/12/28 12:48:44;;;;;;;8.05;3.60;;;;;;;7.63;69.70;100364.22;1936638;91;31473;-63
2022/12/28 12:52:28;;;;;;;18.27;9.68;;;;;;;7.66;69.48;100357.45;1916742;92;34013;-61
2022/12/28 12:56:07;;;;;;;7.62;3.98;;;;;;;7.66;69.72;100352.97;1916801;92;30854;-61
2022/12/28 12:59:44;;;;;;;9.93;3.98;;;;;;;7.64;69.41;100355.30;1905602;93;27685;-60
2022/12/28 13:03:24;;;;;;;8.00;3.45;;;;;;;7.58;68.71;100343.06;1917054;92;29527;-61
2022/12/28 13:06:28;;;;;;;6.70;3.47;;;;;;;7.47;69.15;100330.57;1905868;93;31128;-60
2022/12/28 13:09:33;;;;;;;14.35;5.55;;;;;;;7.52;69.19;100332.62;1917002;92;33767;-61
2022/12/28 13:12:36;;;;;;;14.25;5.08;;;;;;;7.56;69.56;100334.25;1905627;93;29789;-60
2022/12/28 13:15:37;;;;;;;14.18;6.65;;;;;;;7.61;69.18;100328.30;1917208;92;27750;-61
2022/12/28 13:18:40;;;;;;;12.63;5.62;;;;;;;7.67;69.41;100330.72;1912219;92;30145;-60
2022/12/28 13:21:50;;;;;;;7.33;3.65;;;;;;;7.73;69.07;100334.50;1911982;92;31902;-61
2022/12/28 13:24:52;;;;;;;7.55;4.22;;;;;;;7.76;69.37;100334.84;1905184;93;34024;-61
2022/12/28 13:27:55;;;;;;;9.43;4.55;;;;;;;7.78;69.40;100331.66;1916988;92;30763;-60
2022/12/28 13:31:16;;;;;;;11.05;5.30;;;;;;;7.81;69.23;100319.99;1905301;93;28304;-60
2022/12/28 13:34:26;;;;;;;7.37;3.42;;;;;;;7.82;69.00;100313.28;1917424;92;28762;-61
2022/12/28 13:37:28;;;;;;;7.70;2.90;;;;;;;7.86;68.81;100315.36;1912817;92;31113;-62
2022/12/28 13:40:31;;;;;;;6.75;3.75;;;;;;;7.86;68.68;100305.55;1912829;93;34206;-61
2022/12/28 13:43:54;;;;;;;6.65;3.05;;;;;;;7.89;68.57;100301.91;1944567;91;29637;-61
2022/12/28 13:47:04;;;;;;;8.38;4.78;;;;;;;7.93;68.63;100292.88;1942735;91;27718;-63
2022/12/28 13:50:20;;;;;;;10.38;4.55;;;;;;;7.95;68.58;100293.66;1942569;91;29503;-61
2022/12/28 13:53:27;;;;;;;6.00;3.10;;;;;;;7.99;68.40;100291.28;1942662;91;31455;-62
2022/12/28 13:56:30;;;;;;;9.58;4.17;;;;;;;7.99;68.58;100282.42;1972857;90;34242;-61
2022/12/28 13:59:34;;;;;;;13.62;3.77;;;;;;;8.01;68.44;100278.75;1973160;90;30412;-64
2022/12/28 14:02:40;;;;;;;9.00;3.25;;;;;;;8.01;68.32;100281.42;1972960;89;27737;-62
2022/12/28 14:05:46;;;;;;;9.80;3.40;;;;;;;8.05;68.26;100291.50;1913191;92;28657;-63
2022/12/28 14:08:51;;;;;;;7.42;3.65;;;;;;;8.06;68.34;100298.13;1912987;93;31004;-60
2022/12/28 14:11:52;;;;;;;;;;;;;;;8.09;68.38;100298.94;1915495;93;32981;-63
2022/12/28 14:14:56;;;;;;;9.30;2.80;;;;;;;8.09;67.73;100287.79;1944305;91;49833;-64
2022/12/28 14:17:58;;;;;;;9.43;3.00;;;;;;;8.07;68.03;100290.98;1912354;93;27753;-67
2022/12/28 14:21:01;;;;;;;6.47;2.98;;;;;;;8.06;67.97;100287.45;1912827;93;29578;-65
2022/12/28 14:24:08;;;;;;;7.40;3.55;;;;;;;8.06;68.00;100294.57;1912350;93;32221;-63
2022/12/28 14:27:10;;;;;;;6.75;2.98;;;;;;;8.06;67.83;100286.57;1942885;91;32394;-63
2022/12/28 14:30:28;;;;;;;10.13;4.03;;;;;;;8.06;67.99;100287.91;1912911;93;30868;-62
2022/12/28 14:33:34;;;;;;;7.85;3.25;;;;;;;8.06;67.80;100282.56;1942953;91;27675;-63
2022/12/28 14:36:49;;;;;;;6.37;3.00;;;;;;;8.04;67.65;100276.42;1906528;93;28689;-62
2022/12/28 14:39:51;;;;;;;9.20;3.90;;;;;;;8.01;67.87;100273.42;1917151;92;32175;-63
2022/12/28 14:42:54;;;;;;;7.97;4.00;;;;;;;8.00;67.62;100270.34;1905228;93;33476;-63
2022/12/28 14:45:57;;;;;;;8.03;3.70;;;;;;;7.99;67.75;100275.75;1917040;92;29187;-63
2022/12/28 14:49:02;;;;;;;11.38;4.05;;;;;;;7.95;67.54;100266.98;1916908;92;27718;-62
2022/12/28 14:52:15;;;;;;;9.50;4.50;;;;;;;7.93;67.53;100271.53;1916652;92;28910;-65
2022/12/28 14:55:30;;;;;;;6.65;4.12;;;;;;;7.90;67.58;100260.50;1917345;92;30953;-62